Time;durP1;ratioP1;P1;durP2;ratioP2;P2;SDS_P1;SDS_P2;PMS_P1;PMS_P2;Temp;Humidity;BMP_temperature;BMP_pressure;BME280_temperature;BME280_humidity;BME280_pressure;Samples;Min_cycle;Max_cycle;Signal;HPM_P1;HPM_P2
2022/09/10 00:01:41;;;;;;;22.20;13.90;;;;;;;11.69;100.00;99855.59;104883;1273;74623;-71
2022/09/10 00:04:29;;;;;;;24.90;15.00;;;;;;;11.68;100.00;99863.87;104871;1273;67380;-71
2022/09/10 00:07:18;;;;;;;22.70;14.60;;;;;;;11.66;100.00;99859.98;104831;1273;73357;-71
2022/09/10 00:10:07;;;;;;;23.60;14.70;;;;;;;11.65;100.00;99863.11;105087;1273;59819;-71
2022/09/10 00:12:55;;;;;;;18.10;10.90;;;;;;;11.63;100.00;99858.31;105190;1273;60020;-71
2022/09/10 00:15:53;;;;;;;22.40;13.80;;;;;;;11.61;100.00;99857.90;105106;1273;74534;-72
2022/09/10 00:18:42;;;;;;;25.60;15.10;;;;;;;11.61;100.00;99852.21;105090;1273;67770;-72
2022/09/10 00:21:30;;;;;;;23.90;14.80;;;;;;;11.60;100.00;99848.03;105241;1273;72895;-72
2022/09/10 00:24:19;;;;;;;24.30;15.10;;;;;;;11.57;100.00;99846.45;104895;1273;59989;-72
2022/09/10 00:27:08;;;;;;;22.90;14.30;;;;;;;11.56;100.00;99833.77;104874;1273;60460;-72
2022/09/10 00:29:55;;;;;;;22.60;14.80;;;;;;;11.57;100.00;99832.10;104897;1273;74799;-70
2022/09/10 00:32:44;;;;;;;23.60;13.90;;;;;;;11.57;100.00;99828.73;104879;1273;69166;-72
2022/09/10 00:35:33;;;;;;;20.90;13.00;;;;;;;11.56;100.00;99834.34;105050;1273;74409;-71
2022/09/10 00:38:21;;;;;;;20.50;13.60;;;;;;;11.55;100.00;99835.28;104884;1273;59721;-72
2022/09/10 00:41:09;;;;;;;21.80;13.80;;;;;;;11.55;100.00;99839.89;105063;1273;61932;-71
2022/09/10 00:44:02;;;;;;;21.50;13.20;;;;;;;11.52;100.00;99834.98;105107;1273;72222;-72
2022/09/10 00:46:51;;;;;;;17.40;11.60;;;;;;;11.52;100.00;99834.31;104784;1273;69566;-73
2022/09/10 00:49:57;;;;;;;17.40;10.70;;;;;;;11.50;100.00;99830.55;104812;1273;73730;-71
2022/09/10 00:52:46;;;;;;;19.70;11.30;;;;;;;11.51;100.00;99822.90;105235;1273;59777;-71
2022/09/10 00:55:39;;;;;;;15.30;8.70;;;;;;;11.51;100.00;99820.39;105101;1273;59985;-72
2022/09/10 00:58:28;;;;;;;14.10;8.40;;;;;;;11.50;100.00;99818.84;104964;1273;74094;-72
2022/09/10 01:01:18;;;;;;;14.10;8.00;;;;;;;11.51;100.00;99811.27;104853;1273;66780;-72
2022/09/10 01:04:09;;;;;;;13.50;8.80;;;;;;;11.53;100.00;99823.35;104851;1273;74553;-72
2022/09/10 01:06:58;;;;;;;13.40;8.20;;;;;;;11.53;100.00;99819.33;103753;1274;60648;-75
2022/09/10 01:09:47;;;;;;;13.10;7.70;;;;;;;11.51;100.00;99822.64;104727;1273;62102;-70
2022/09/10 01:13:17;;;;;;;12.80;7.70;;;;;;;11.52;100.00;99820.13;104766;1273;74336;-71
2022/09/10 01:16:18;;;;;;;12.50;8.00;;;;;;;11.54;100.00;99822.40;105050;1273;68578;-71
2022/09/10 01:19:45;;;;;;;14.80;8.70;;;;;;;11.55;100.00;99820.59;104874;1274;74345;-70
2022/09/10 01:22:46;;;;;;;15.30;9.00;;;;;;;11.54;100.00;99818.52;105147;1273;59931;-71
2022/09/10 01:26:22;;;;;;;16.20;9.20;;;;;;;11.51;100.00;99819.30;104960;1273;61032;-71
2022/09/10 01:29:21;;;;;;;15.10;9.40;;;;;;;11.51;100.00;99826.09;104896;1273;74450;-72
2022/09/10 01:32:26;;;;;;;14.30;8.10;;;;;;;11.48;100.00;99827.02;104828;1273;68649;-72
2022/09/10 01:35:18;;;;;;;15.10;9.10;;;;;;;11.45;100.00;99820.90;104784;1273;71874;-72
2022/09/10 01:38:14;;;;;;;16.60;9.70;;;;;;;11.44;100.00;99825.83;104789;1274;59669;-73
2022/09/10 01:41:02;;;;;;;19.60;10.10;;;;;;;11.41;100.00;99822.47;104646;1273;60584;-75
2022/09/10 01:43:55;;;;;;;16.20;10.40;;;;;;;11.40;100.00;99823.94;104849;1274;73210;-74
2022/09/10 01:46:58;;;;;;;16.60;10.40;;;;;;;11.38;100.00;99815.61;104781;1274;67025;-73
2022/09/10 01:50:05;;;;;;;16.60;9.80;;;;;;;11.38;100.00;99812.93;104573;1273;74410;-72
2022/09/10 01:53:32;;;;;;;17.30;10.20;;;;;;;11.37;100.00;99803.04;105375;1274;59690;-74
2022/09/10 01:56:34;;;;;;;17.40;11.20;;;;;;;11.39;100.00;99803.55;104787;1274;62110;-73
2022/09/10 01:59:58;;;;;;;15.30;9.50;;;;;;;11.39;100.00;99800.76;105141;1274;72105;-74
2022/09/10 02:03:10;;;;;;;18.20;11.10;;;;;;;11.38;100.00;99805.64;104813;1274;68535;-73
2022/09/10 02:05:59;;;;;;;16.10;10.40;;;;;;;11.35;100.00;99801.48;104798;1273;72901;-72
2022/09/10 02:08:51;;;;;;;17.70;11.50;;;;;;;11.31;100.00;99798.42;104623;1273;59924;-73
2022/09/10 02:11:49;;;;;;;15.60;9.20;;;;;;;11.28;100.00;99805.21;104771;1273;60969;-74
2022/09/10 02:14:56;;;;;;;17.10;10.70;;;;;;;11.27;100.00;99796.48;104611;1273;71137;-73
2022/09/10 02:18:14;;;;;;;17.40;10.80;;;;;;;11.27;100.00;99790.83;104790;1273;68732;-73
2022/09/10 02:21:02;;;;;;;16.60;10.70;;;;;;;11.25;100.00;99785.94;104905;1274;71542;-73
2022/09/10 02:23:58;;;;;;;17.60;11.10;;;;;;;11.25;100.00;99786.86;104564;1274;59853;-70
2022/09/10 02:26:46;;;;;;;16.30;10.20;;;;;;;11.24;100.00;99782.46;104820;1273;59636;-72
2022/09/10 02:29:34;;;;;;;16.40;10.40;;;;;;;11.24;100.00;99780.36;105023;1273;72057;-73
2022/09/10 02:32:22;;;;;;;18.70;10.60;;;;;;;11.24;100.00;99778.95;104739;1274;66990;-73
2022/09/10 02:35:10;;;;;;;18.50;11.20;;;;;;;11.23;100.00;99776.39;104750;1274;74453;-70
2022/09/10 02:37:58;;;;;;;17.70;10.90;;;;;;;11.23;100.00;99779.35;104819;1273;60868;-71
2022/09/10 02:40:50;;;;;;;18.70;11.70;;;;;;;11.24;100.00;99781.03;104828;1273;61106;-70
2022/09/10 02:43:38;;;;;;;16.70;10.70;;;;;;;11.24;100.00;99780.69;104861;1273;74522;-71
2022/09/10 02:46:27;;;;;;;16.40;10.90;;;;;;;11.25;100.00;99780.61;105171;1273;65913;-72
2022/09/10 02:49:15;;;;;;;19.50;11.00;;;;;;;11.25;100.00;99779.06;105005;1274;74016;-72
2022/09/10 02:52:03;;;;;;;17.10;11.00;;;;;;;11.25;100.00;99780.66;104802;1274;59799;-71
2022/09/10 02:54:52;;;;;;;17.50;11.40;;;;;;;11.24;100.00;99777.89;104788;1274;60046;-75
2022/09/10 02:57:41;;;;;;;16.50;10.50;;;;;;;11.23;100.00;99775.64;104693;1274;71865;-73
2022/09/10 03:00:31;;;;;;;15.30;10.40;;;;;;;11.22;100.00;99775.41;104855;1274;68168;-74
2022/09/10 03:03:20;;;;;;;17.90;11.00;;;;;;;11.21;100.00;99780.45;104713;1273;72826;-73
2022/09/10 03:06:09;;;;;;;17.80;11.40;;;;;;;11.21;100.00;99773.85;104869;1273;59722;-72
2022/09/10 03:08:57;;;;;;;17.00;11.00;;;;;;;11.23;100.00;99775.14;104915;1273;60442;-73
2022/09/10 03:11:46;;;;;;;16.00;10.00;;;;;;;11.23;100.00;99769.59;104823;1273;71747;-77
2022/09/10 03:14:34;;;;;;;17.90;11.10;;;;;;;11.23;100.00;99771.23;104998;1273;69731;-73
2022/09/10 03:17:22;;;;;;;20.30;12.10;;;;;;;11.21;100.00;99772.77;105108;1273;73410;-71
2022/09/10 03:20:16;;;;;;;17.90;11.50;;;;;;;11.20;100.00;99768.61;104981;1273;60814;-71
2022/09/10 03:23:15;;;;;;;16.40;10.10;;;;;;;11.21;100.00;99767.13;105056;1273;60552;-71
2022/09/10 03:26:04;;;;;;;17.30;10.50;;;;;;;11.20;100.00;99767.57;104864;1274;73763;-71
2022/09/10 03:28:53;;;;;;;16.70;10.40;;;;;;;11.20;100.00;99766.16;104777;1273;67286;-70
2022/09/10 03:31:45;;;;;;;18.00;10.70;;;;;;;11.20;100.00;99765.58;105049;1274;74184;-72
2022/09/10 03:34:35;;;;;;;16.40;10.70;;;;;;;11.19;100.00;99771.15;105011;1273;59739;-72
2022/09/10 03:37:23;;;;;;;17.70;11.20;;;;;;;11.20;100.00;99770.62;104909;1274;59650;-71
2022/09/10 03:40:11;;;;;;;18.00;11.00;;;;;;;11.20;100.00;99768.25;104830;1274;74092;-71
2022/09/10 03:42:59;;;;;;;16.50;10.70;;;;;;;11.22;100.00;99762.40;104838;1273;67559;-70
2022/09/10 03:45:50;;;;;;;17.80;12.00;;;;;;;11.23;100.00;99760.18;104759;1274;72908;-70
2022/09/10 03:48:38;;;;;;;16.50;10.40;;;;;;;11.23;100.00;99760.16;104643;1273;59741;-70
2022/09/10 03:51:28;;;;;;;19.30;11.50;;;;;;;11.23;100.00;99758.77;104912;1274;62078;-71
2022/09/10 03:54:16;;;;;;;22.20;11.90;;;;;;;11.23;100.00;99762.19;105058;1273;74698;-71
2022/09/10 03:57:05;;;;;;;18.80;11.30;;;;;;;11.22;100.00;99762.73;105055;1274;69648;-72
2022/09/10 03:59:53;;;;;;;18.00;11.10;;;;;;;11.22;100.00;99771.52;105034;1274;74035;-70
2022/09/10 04:02:42;;;;;;;18.60;11.40;;;;;;;11.21;100.00;99770.12;104857;1274;60186;-71
2022/09/10 04:05:32;;;;;;;18.20;12.40;;;;;;;11.22;100.00;99769.70;104772;1274;60709;-71
2022/09/10 04:08:20;;;;;;;17.90;11.70;;;;;;;11.23;100.00;99770.34;105209;1274;72633;-72
2022/09/10 04:11:10;;;;;;;17.30;11.10;;;;;;;11.23;100.00;99772.13;105019;1273;68965;-73
2022/09/10 04:13:59;;;;;;;17.20;11.40;;;;;;;11.24;100.00;99769.55;105044;1273;74456;-72
2022/09/10 04:16:47;;;;;;;18.70;11.80;;;;;;;11.25;100.00;99773.38;105005;1274;61305;-72
2022/09/10 04:19:39;;;;;;;18.50;12.10;;;;;;;11.25;100.00;99774.05;104877;1273;60994;-73
2022/09/10 04:22:27;;;;;;;21.30;11.80;;;;;;;11.25;100.00;99772.25;104756;1275;74671;-73
2022/09/10 04:25:18;;;;;;;17.60;10.90;;;;;;;11.27;100.00;99768.41;105192;1273;69633;-74
2022/09/10 04:28:06;;;;;;;18.20;11.70;;;;;;;11.28;100.00;99767.26;104998;1274;71454;-73
2022/09/10 04:30:54;;;;;;;17.70;10.90;;;;;;;11.30;100.00;99770.80;104860;1274;59748;-74
2022/09/10 04:33:45;;;;;;;18.70;12.00;;;;;;;11.32;100.00;99771.57;105103;1273;62093;-74
2022/09/10 04:36:34;;;;;;;17.80;10.60;;;;;;;11.36;100.00;99775.66;105024;1274;73588;-74
2022/09/10 04:39:23;;;;;;;16.10;10.70;;;;;;;11.39;100.00;99774.45;105024;1273;68345;-74
2022/09/10 04:42:14;;;;;;;18.00;10.90;;;;;;;11.40;100.00;99772.41;104898;1276;73966;-73
2022/09/10 04:45:02;;;;;;;18.40;11.70;;;;;;;11.42;100.00;99768.04;104938;1271;59732;-74
2022/09/10 04:47:53;;;;;;;17.30;11.00;;;;;;;11.43;100.00;99766.55;104925;1274;60294;-75
2022/09/10 04:50:41;;;;;;;16.40;10.30;;;;;;;11.42;100.00;99769.24;104875;1273;73736;-73
2022/09/10 04:53:58;;;;;;;17.60;11.00;;;;;;;11.42;100.00;99760.15;105401;1273;66529;-75
2022/09/10 04:56:51;;;;;;;17.40;11.00;;;;;;;11.44;100.00;99757.40;104914;1274;73229;-76
2022/09/10 04:59:40;;;;;;;17.00;10.30;;;;;;;11.42;100.00;99761.27;104761;1273;60872;-74
2022/09/10 05:02:28;;;;;;;17.20;10.90;;;;;;;11.36;100.00;99764.02;105105;1275;59550;-75
2022/09/10 05:05:17;;;;;;;18.30;11.20;;;;;;;11.37;100.00;99767.39;104945;1273;74726;-71
2022/09/10 05:08:06;;;;;;;16.60;10.80;;;;;;;11.35;100.00;99766.88;104862;1273;68630;-71
2022/09/10 05:10:55;;;;;;;15.80;9.60;;;;;;;11.29;100.00;99761.13;104907;1273;73234;-74
2022/09/10 05:13:43;;;;;;;17.20;10.50;;;;;;;11.28;100.00;99754.34;104833;1273;59642;-74
2022/09/10 05:16:35;;;;;;;17.50;10.60;;;;;;;11.28;100.00;99754.80;105097;1273;60901;-76
2022/09/10 05:19:25;;;;;;;17.60;11.00;;;;;;;11.29;100.00;99758.10;105014;1273;73108;-76
2022/09/10 05:22:20;;;;;;;17.30;10.60;;;;;;;11.30;100.00;99758.88;105155;1274;66539;-74
2022/09/10 05:25:09;;;;;;;16.30;11.00;;;;;;;11.35;100.00;99763.09;105139;1274;73636;-72
2022/09/10 05:27:59;;;;;;;16.10;9.20;;;;;;;11.38;100.00;99760.50;105169;1274;59784;-73
2022/09/10 05:30:48;;;;;;;14.80;9.80;;;;;;;11.43;100.00;99763.35;104929;1273;62386;-70
2022/09/10 05:33:42;;;;;;;15.90;10.10;;;;;;;11.45;100.00;99761.40;104722;1274;74576;-73
2022/09/10 05:36:33;;;;;;;17.00;10.80;;;;;;;11.46;100.00;99763.29;104870;1273;66432;-70
2022/09/10 05:39:21;;;;;;;16.50;10.90;;;;;;;11.43;100.00;99762.42;104808;1274;72874;-71
2022/09/10 05:42:10;;;;;;;16.50;10.40;;;;;;;11.44;100.00;99762.73;105404;1274;60299;-70
2022/09/10 05:44:58;;;;;;;16.30;10.40;;;;;;;11.43;100.00;99768.80;105170;1273;61334;-73
2022/09/10 05:47:46;;;;;;;16.70;10.70;;;;;;;11.44;100.00;99771.71;104964;1274;74572;-76
2022/09/10 05:50:37;;;;;;;16.50;10.40;;;;;;;11.46;100.00;99774.81;104937;1273;66524;-75
2022/09/10 05:53:26;;;;;;;16.70;10.50;;;;;;;11.50;100.00;99776.55;105227;1274;71841;-76
2022/09/10 05:56:14;;;;;;;15.50;10.00;;;;;;;11.56;100.00;99779.48;105180;1273;59755;-75
2022/09/10 05:59:03;;;;;;;15.70;9.90;;;;;;;11.58;100.00;99787.08;105044;1274;60612;-75
2022/09/10 06:01:52;;;;;;;15.10;9.70;;;;;;;11.55;100.00;99787.48;105274;1274;72072;-75
2022/09/10 06:04:41;;;;;;;14.60;8.60;;;;;;;11.53;100.00;99788.02;105014;1273;66527;-76
2022/09/10 06:07:30;;;;;;;15.90;9.20;;;;;;;11.53;100.00;99785.56;104882;1274;74187;-77
2022/09/10 06:10:18;;;;;;;13.90;8.40;;;;;;;11.57;100.00;99787.13;104929;1274;60207;-75
2022/09/10 06:13:10;;;;;;;15.70;9.50;;;;;;;11.61;100.00;99787.71;105506;1274;61420;-76
2022/09/10 06:15:59;;;;;;;14.70;9.10;;;;;;;11.65;100.00;99786.66;104966;1274;73272;-76
2022/09/10 06:18:48;;;;;;;13.10;7.90;;;;;;;11.64;100.00;99787.10;105072;1273;67798;-74
2022/09/10 06:21:39;;;;;;;13.40;8.00;;;;;;;11.64;100.00;99792.38;104966;1274;73979;-77
2022/09/10 06:24:28;;;;;;;13.30;8.20;;;;;;;11.68;100.00;99790.47;104824;1274;59680;-76
2022/09/10 06:27:16;;;;;;;13.70;8.40;;;;;;;11.72;100.00;99787.96;104872;1273;60472;-76
2022/09/10 06:30:06;;;;;;;14.10;8.60;;;;;;;11.76;100.00;99789.44;105303;1274;71955;-74
2022/09/10 06:32:58;;;;;;;14.70;8.60;;;;;;;11.80;100.00;99784.82;105013;1274;68698;-75
2022/09/10 06:36:02;;;;;;;14.10;8.30;;;;;;;11.85;100.00;99784.70;104460;1278;71901;-75
2022/09/10 06:38:54;;;;;;;13.40;8.10;;;;;;;11.92;100.00;99781.30;104648;1278;60055;-75
2022/09/10 06:41:43;;;;;;;13.70;8.00;;;;;;;12.00;100.00;99783.15;104471;1278;61042;-75
2022/09/10 06:44:54;;;;;;;12.60;7.20;;;;;;;12.02;100.00;99779.16;104827;1277;74329;-74
2022/09/10 06:48:01;;;;;;;12.80;7.80;;;;;;;12.06;100.00;99780.40;104954;1278;68150;-77
2022/09/10 06:51:18;;;;;;;12.80;7.80;;;;;;;12.09;100.00;99779.28;104584;1278;71435;-75
2022/09/10 06:54:16;;;;;;;12.10;6.70;;;;;;;12.08;100.00;99780.80;104762;1278;59705;-76
2022/09/10 06:57:04;;;;;;;12.80;7.20;;;;;;;12.07;100.00;99784.27;104736;1278;61869;-76
2022/09/10 06:59:52;;;;;;;13.90;7.40;;;;;;;12.07;100.00;99785.85;104549;1278;71599;-76
2022/09/10 07:02:43;;;;;;;11.50;6.90;;;;;;;12.07;100.00;99791.38;104841;1277;66805;-75
2022/09/10 07:05:32;;;;;;;11.90;6.70;;;;;;;12.07;100.00;99794.55;104534;1279;73149;-79
2022/09/10 07:08:21;;;;;;;12.10;7.30;;;;;;;12.10;100.00;99792.51;104458;1278;59715;-76
2022/09/10 07:11:14;;;;;;;12.50;7.10;;;;;;;12.16;100.00;99787.09;104488;1278;61920;-77
2022/09/10 07:14:04;;;;;;;12.90;7.80;;;;;;;12.19;100.00;99789.11;104703;1274;73670;-77
2022/09/10 07:16:54;;;;;;;13.20;7.90;;;;;;;12.20;100.00;99790.61;104864;1274;67934;-76
2022/09/10 07:19:43;;;;;;;14.80;8.20;;;;;;;12.23;100.00;99790.14;104914;1274;74379;-78
2022/09/10 07:22:57;;;;;;;13.60;8.50;;;;;;;12.32;100.00;99794.05;105180;1274;60254;-79
2022/09/10 07:25:47;;;;;;;10.40;5.50;;;;;;;12.39;100.00;99797.30;105019;1274;60499;-77
2022/09/10 07:28:55;;;;;;;13.60;7.50;;;;;;;12.48;100.00;99794.23;104667;1274;72245;-76
2022/09/10 07:31:47;;;;;;;12.10;7.60;;;;;;;12.52;100.00;99793.59;105207;1274;69674;-77
2022/09/10 07:34:40;;;;;;;13.80;7.20;;;;;;;12.53;100.00;99792.63;104873;1275;71564;-77
2022/09/10 07:37:28;;;;;;;13.50;8.10;;;;;;;12.51;100.00;99790.19;104978;1274;60000;-79
2022/09/10 07:40:16;;;;;;;12.90;7.70;;;;;;;12.53;100.00;99785.38;104917;1274;59671;-76
2022/09/10 07:43:05;;;;;;;15.40;7.90;;;;;;;12.56;100.00;99786.45;104962;1274;73271;-75
2022/09/10 07:45:54;;;;;;;13.70;7.70;;;;;;;12.61;100.00;99782.10;104859;1274;69673;-72
2022/09/10 07:48:42;;;;;;;13.10;7.60;;;;;;;12.66;100.00;99781.52;105394;1274;73364;-73
2022/09/10 07:51:33;;;;;;;10.80;6.70;;;;;;;12.72;100.00;99784.02;105174;1274;59666;-73
2022/09/10 07:54:23;;;;;;;13.50;7.40;;;;;;;12.75;100.00;99784.04;105567;1274;61118;-74
2022/09/10 07:57:15;;;;;;;11.80;7.00;;;;;;;12.77;100.00;99780.54;105192;1273;74922;-73
2022/09/10 08:00:13;;;;;;;12.00;7.70;;;;;;;12.84;100.00;99783.65;105104;1274;68843;-72
2022/09/10 08:03:10;;;;;;;12.50;7.10;;;;;;;12.87;100.00;99783.69;105177;1274;72947;-74
2022/09/10 08:06:03;;;;;;;12.30;7.30;;;;;;;12.85;100.00;99785.64;105049;1274;60355;-75
2022/09/10 08:08:52;;;;;;;13.90;7.80;;;;;;;12.89;100.00;99784.61;104869;1274;61372;-75
2022/09/10 08:11:40;;;;;;;12.60;7.50;;;;;;;12.92;100.00;99784.25;105065;1274;74309;-73
2022/09/10 08:14:30;;;;;;;12.20;7.10;;;;;;;12.98;100.00;99787.73;104888;1274;69379;-75
2022/09/10 08:17:19;;;;;;;15.60;7.90;;;;;;;13.01;100.00;99786.19;105173;1273;73655;-74
2022/09/10 08:20:09;;;;;;;11.60;7.30;;;;;;;13.08;100.00;99786.25;104956;1273;61379;-74
2022/09/10 08:22:59;;;;;;;12.80;7.40;;;;;;;13.13;100.00;99791.48;104834;1274;62106;-73
2022/09/10 08:25:51;;;;;;;11.60;7.00;;;;;;;13.16;100.00;99787.48;104816;1276;74760;-74
2022/09/10 08:28:46;;;;;;;14.10;8.30;;;;;;;13.21;100.00;99790.40;105141;1274;69183;-72
2022/09/10 08:31:35;;;;;;;13.70;8.20;;;;;;;13.23;100.00;99789.64;104970;1274;73088;-74
2022/09/10 08:34:34;;;;;;;12.90;7.90;;;;;;;13.22;100.00;99790.98;105127;1274;59809;-74
2022/09/10 08:37:29;;;;;;;13.00;8.40;;;;;;;13.24;100.00;99793.27;104891;1274;60234;-72
2022/09/10 08:40:18;;;;;;;66.20;43.10;;;;;;;13.25;100.00;99792.11;105150;1274;74745;-70
2022/09/10 08:43:08;;;;;;;16.50;9.80;;;;;;;13.33;100.00;99791.08;104892;1274;69621;-71
2022/09/10 08:46:01;;;;;;;15.20;8.50;;;;;;;13.26;100.00;99791.30;105312;1274;71173;-72
2022/09/10 08:49:15;;;;;;;16.00;9.10;;;;;;;13.12;99.83;99793.11;105590;1274;59725;-71
2022/09/10 08:52:34;;;;;;;13.50;7.60;;;;;;;13.10;100.00;99792.80;105479;1274;59625;-70
2022/09/10 08:55:31;;;;;;;15.50;7.90;;;;;;;13.17;100.00;99788.08;105732;1273;74460;-71
2022/09/10 08:58:32;;;;;;;15.10;8.80;;;;;;;13.22;99.96;99784.38;105240;1274;69640;-72
2022/09/10 09:01:53;;;;;;;15.00;8.80;;;;;;;13.24;99.96;99780.52;105014;1274;74458;-70
2022/09/10 09:04:53;;;;;;;15.30;8.80;;;;;;;13.27;99.99;99784.63;104853;1274;59599;-72
2022/09/10 09:07:42;;;;;;;17.70;9.80;;;;;;;13.27;99.90;99779.08;104804;1274;60771;-70
2022/09/10 09:11:04;;;;;;;14.70;8.10;;;;;;;13.29;100.00;99780.67;104781;1274;73524;-71
2022/09/10 09:14:26;;;;;;;17.40;9.90;;;;;;;13.33;100.00;99779.13;104971;1273;66803;-72
2022/09/10 09:17:43;;;;;;;17.80;11.60;;;;;;;13.38;100.00;99780.05;104836;1274;73505;-72
2022/09/10 09:20:45;;;;;;;16.50;9.80;;;;;;;13.42;100.00;99775.25;104761;1274;59663;-72
2022/09/10 09:23:54;;;;;;;18.90;10.50;;;;;;;13.43;100.00;99771.92;105021;1274;62106;-72
2022/09/10 09:27:15;;;;;;;18.80;11.30;;;;;;;13.31;99.49;99771.23;104729;1274;73267;-72
2022/09/10 09:30:32;;;;;;;19.10;11.60;;;;;;;13.25;99.98;99770.03;104610;1274;68100;-76
2022/09/10 09:33:23;;;;;;;19.30;11.80;;;;;;;13.30;100.00;99769.55;104993;1273;74469;-72
2022/09/10 09:36:22;;;;;;;18.50;10.60;;;;;;;13.28;100.00;99771.51;104748;1274;59874;-72
2022/09/10 09:40:03;;;;;;;21.30;12.60;;;;;;;13.29;100.00;99772.52;104970;1273;61228;-71
2022/09/10 09:43:32;;;;;;;17.10;9.90;;;;;;;13.32;100.00;99768.39;104293;1282;72696;-71
2022/09/10 09:46:23;;;;;;;21.50;13.30;;;;;;;13.38;100.00;99766.41;104647;1280;67504;-72
2022/09/10 09:49:15;;;;;;;21.60;13.90;;;;;;;13.41;99.92;99768.52;104061;1281;71586;-73
2022/09/10 09:52:23;;;;;;;21.40;13.10;;;;;;;13.39;99.98;99769.16;104144;1282;59849;-73
2022/09/10 09:55:32;;;;;;;31.70;14.50;;;;;;;13.39;100.00;99773.02;104343;1281;59846;-72
2022/09/10 09:58:23;;;;;;;23.30;14.70;;;;;;;13.45;100.00;99771.39;104804;1279;73124;-72
2022/09/10 10:01:16;;;;;;;22.20;13.90;;;;;;;13.54;100.00;99773.79;104360;1280;67906;-73
2022/09/10 10:04:25;;;;;;;23.20;14.90;;;;;;;13.56;100.00;99773.02;104289;1280;73070;-70
2022/09/10 10:07:23;;;;;;;24.80;14.60;;;;;;;13.56;100.00;99775.16;104436;1279;60279;-72
2022/09/10 10:10:22;;;;;;;23.90;13.90;;;;;;;13.60;100.00;99770.86;104564;1280;60978;-71
2022/09/10 10:13:20;;;;;;;23.30;13.00;;;;;;;13.61;100.00;99771.66;104656;1279;73302;-74
2022/09/10 10:16:33;;;;;;;23.30;13.50;;;;;;;13.61;100.00;99772.89;104771;1274;67936;-72
2022/09/10 10:19:36;;;;;;;22.70;14.50;;;;;;;13.63;100.00;99772.02;104976;1273;74458;-71
2022/09/10 10:22:26;;;;;;;19.50;12.60;;;;;;;13.57;99.52;99770.59;104924;1273;59847;-73
2022/09/10 10:25:43;;;;;;;19.60;12.10;;;;;;;13.48;99.87;99767.05;104991;1273;60915;-72
2022/09/10 10:28:31;;;;;;;20.80;12.20;;;;;;;13.48;100.00;99760.98;104907;1273;73508;-72
2022/09/10 10:31:19;;;;;;;21.70;13.20;;;;;;;13.49;100.00;99756.77;104963;1273;69887;-71
2022/09/10 10:34:14;;;;;;;23.30;13.70;;;;;;;13.51;100.00;99757.44;105112;1274;72634;-72
2022/09/10 10:37:45;;;;;;;20.20;12.70;;;;;;;13.58;100.00;99749.48;105142;1273;61268;-73
2022/09/10 10:40:47;;;;;;;22.60;14.30;;;;;;;13.64;99.97;99742.91;105004;1273;60874;-74
2022/09/10 10:43:35;;;;;;;27.10;15.30;;;;;;;13.71;99.99;99740.83;104877;1273;74151;-72
2022/09/10 10:46:33;;;;;;;23.40;13.30;;;;;;;13.81;99.98;99739.48;104976;1273;69686;-73
2022/09/10 10:49:47;;;;;;;23.30;14.70;;;;;;;13.89;99.89;99737.27;104954;1273;73129;-72
2022/09/10 10:52:50;;;;;;;24.10;14.30;;;;;;;13.97;99.42;99739.34;105135;1274;60265;-72
2022/09/10 10:55:46;;;;;;;23.00;13.80;;;;;;;14.02;99.27;99739.63;105242;1273;60515;-74
2022/09/10 10:58:50;;;;;;;25.50;14.60;;;;;;;14.04;99.11;99734.04;104919;1273;73908;-72
2022/09/10 11:01:54;;;;;;;24.80;14.90;;;;;;;14.09;99.19;99734.66;105145;1273;67490;-73
2022/09/10 11:04:50;;;;;;;26.70;14.80;;;;;;;14.15;99.34;99732.48;104636;1276;74497;-73
2022/09/10 11:07:42;;;;;;;25.70;15.70;;;;;;;14.22;99.12;99734.98;104885;1273;61033;-73
2022/09/10 11:10:42;;;;;;;26.50;16.30;;;;;;;14.29;98.92;99733.77;104680;1276;60670;-74
2022/09/10 11:13:40;;;;;;;23.60;14.20;;;;;;;14.34;98.31;99730.20;104874;1273;72275;-73
2022/09/10 11:16:47;;;;;;;24.60;14.70;;;;;;;14.36;97.56;99728.42;104775;1274;67998;-75
2022/09/10 11:19:47;;;;;;;24.80;15.90;;;;;;;14.37;97.15;99727.68;104812;1273;72653;-74
2022/09/10 11:23:03;;;;;;;27.40;16.10;;;;;;;14.38;97.23;99730.58;104825;1272;60972;-74
2022/09/10 11:26:13;;;;;;;26.10;14.80;;;;;;;14.41;96.69;99732.73;105035;1273;60834;-73
2022/09/10 11:29:30;;;;;;;25.00;14.70;;;;;;;14.46;96.72;99733.00;104916;1273;73315;-74
2022/09/10 11:33:00;;;;;;;28.00;16.00;;;;;;;14.44;94.51;99734.20;105070;1273;68570;-73
2022/09/10 11:36:24;;;;;;;22.80;14.40;;;;;;;14.41;95.62;99726.69;104840;1273;74604;-76
2022/09/10 11:39:30;;;;;;;19.70;11.50;;;;;;;14.50;96.10;99719.55;104883;1273;60661;-74
2022/09/10 11:42:39;;;;;;;22.80;13.40;;;;;;;14.60;95.53;99715.73;105127;1273;61887;-76
2022/09/10 11:45:58;;;;;;;24.00;13.80;;;;;;;14.71;94.95;99721.81;104983;1273;73112;-74
2022/09/10 11:49:02;;;;;;;19.70;11.60;;;;;;;14.77;93.85;99723.30;104851;1273;68873;-74
2022/09/10 11:51:50;;;;;;;20.70;12.30;;;;;;;14.73;92.52;99726.98;104853;1273;75147;-75
2022/09/10 11:54:39;;;;;;;20.40;13.30;;;;;;;14.69;93.19;99727.52;104884;1273;59797;-72
2022/09/10 11:57:50;;;;;;;28.30;15.60;;;;;;;14.61;93.41;99725.39;105148;1273;61852;-76
2022/09/10 12:01:04;;;;;;;26.60;17.10;;;;;;;14.45;93.53;99723.81;105289;1272;74469;-75
2022/09/10 12:04:13;;;;;;;27.70;17.80;;;;;;;14.27;94.03;99733.56;105417;1273;68040;-74
2022/09/10 12:07:20;;;;;;;30.10;18.40;;;;;;;14.15;95.00;99735.27;105108;1273;72174;-73
2022/09/10 12:10:29;;;;;;;28.90;17.60;;;;;;;14.04;95.36;99728.55;105110;1274;60055;-72
2022/09/10 12:13:17;;;;;;;25.80;16.70;;;;;;;13.93;96.08;99728.33;105243;1273;60808;-73
2022/09/10 12:16:19;;;;;;;24.50;14.70;;;;;;;13.83;96.24;99727.91;104952;1273;73295;-72
2022/09/10 12:19:45;;;;;;;27.30;17.00;;;;;;;13.75;97.18;99725.29;104955;1273;68180;-72
2022/09/10 12:22:40;;;;;;;28.50;16.80;;;;;;;13.67;97.48;99724.99;105103;1273;71409;-73
2022/09/10 12:25:32;;;;;;;25.10;15.80;;;;;;;13.67;98.13;99721.05;104989;1273;60304;-74
2022/09/10 12:28:40;;;;;;;28.90;17.80;;;;;;;13.75;98.53;99710.42;105074;1273;60414;-74
2022/09/10 12:32:03;;;;;;;28.20;16.90;;;;;;;13.85;98.27;99707.70;104990;1273;73501;-73
2022/09/10 12:35:29;;;;;;;29.50;17.40;;;;;;;13.93;98.45;99713.48;104900;1274;66752;-73
2022/09/10 12:38:54;;;;;;;27.60;16.20;;;;;;;14.00;97.49;99716.96;105340;1273;72866;-74
2022/09/10 12:41:42;;;;;;;27.50;15.90;;;;;;;14.00;97.22;99709.11;105274;1273;59750;-74
2022/09/10 12:44:33;;;;;;;27.50;16.90;;;;;;;13.97;97.15;99714.02;105274;1273;61441;-74
2022/09/10 12:47:41;;;;;;;33.20;18.20;;;;;;;13.92;97.14;99717.71;105081;1273;71837;-72
2022/09/10 12:50:35;;;;;;;34.40;19.50;;;;;;;13.86;97.29;99717.27;105218;1273;66788;-73
2022/09/10 12:53:53;;;;;;;35.80;19.50;;;;;;;13.80;97.75;99712.96;105408;1272;73015;-73
2022/09/10 12:57:02;;;;;;;40.70;20.90;;;;;;;13.79;98.27;99714.48;105035;1273;59643;-73
2022/09/10 13:00:46;;;;;;;40.60;21.80;;;;;;;13.76;98.55;99718.95;104943;1273;60496;-73
2022/09/10 13:03:52;;;;;;;39.10;21.00;;;;;;;13.73;98.25;99721.02;105021;1273;73725;-73
2022/09/10 13:06:43;;;;;;;35.60;21.00;;;;;;;13.71;98.55;99717.48;104407;1273;1469741;-72
2022/09/10 13:09:37;;;;;;;34.60;20.00;;;;;;;13.67;98.42;99715.34;104882;1273;71616;-72
2022/09/10 13:12:27;;;;;;;33.00;18.90;;;;;;;13.66;98.72;99712.21;104924;1273;60364;-73
2022/09/10 13:15:23;;;;;;;31.50;18.50;;;;;;;13.66;98.81;99712.05;105013;1273;60503;-72
2022/09/10 13:18:24;;;;;;;29.30;17.40;;;;;;;13.60;98.81;99708.80;104673;1273;74797;-73
2022/09/10 13:21:24;;;;;;;30.10;19.00;;;;;;;13.57;99.15;99707.92;104828;1273;67923;-73